createdAt,value
2018-09-20T00:01:19.259Z,6.23
2018-09-20T00:11:22.840Z,6.00
2018-09-20T00:21:26.143Z,5.73
2018-09-20T00:31:29.515Z,5.50
2018-09-20T00:41:32.840Z,5.93
2018-09-20T00:51:36.172Z,5.80
2018-09-20T01:01:39.509Z,5.40
2018-09-20T01:11:42.871Z,5.67
2018-09-20T01:21:46.198Z,5.20
2018-09-20T01:31:49.560Z,5.47
2018-09-20T01:41:52.905Z,5.80
2018-09-20T01:51:56.235Z,5.23
2018-09-20T02:01:59.606Z,5.40
2018-09-20T02:12:02.914Z,6.07
2018-09-20T02:22:06.336Z,5.67
2018-09-20T02:32:09.961Z,5.80
2018-09-20T02:42:13.245Z,5.60
2018-09-20T02:52:17.330Z,6.30
2018-09-20T03:02:21.229Z,6.03
2018-09-20T03:12:24.527Z,5.93
2018-09-20T03:22:29.257Z,6.20
2018-09-20T03:32:32.771Z,6.30
2018-09-20T03:42:36.078Z,6.10
2018-09-20T03:52:39.453Z,6.07
2018-09-20T04:02:42.851Z,6.60
2018-09-20T04:12:46.117Z,6.17
2018-09-20T04:22:49.499Z,5.93
2018-09-20T04:32:52.816Z,6.50
2018-09-20T04:42:56.153Z,7.10
2018-09-20T04:52:59.502Z,7.50
2018-09-20T05:03:02.852Z,6.70
2018-09-20T05:13:06.181Z,7.03
2018-09-20T05:23:09.619Z,10.23
2018-09-20T05:33:12.881Z,7.37
2018-09-20T05:43:16.262Z,7.10
2018-09-20T05:53:19.589Z,7.37
2018-09-20T06:03:22.930Z,7.70
2018-09-20T06:13:26.291Z,7.83
2018-09-20T06:23:29.639Z,7.90
2018-09-20T06:33:32.965Z,8.17
2018-09-20T06:43:36.277Z,8.23
2018-09-20T06:53:39.686Z,8.50
2018-09-20T07:03:43.033Z,7.50
2018-09-20T07:13:46.446Z,7.63
2018-09-20T07:23:49.685Z,7.93
2018-09-20T07:33:52.986Z,7.60
2018-09-20T07:43:56.349Z,7.67
2018-09-20T07:53:59.785Z,7.50
2018-09-20T08:04:03.050Z,7.13
2018-09-20T08:14:07.494Z,7.23
2018-09-20T08:24:11.005Z,6.83
2018-09-20T08:34:14.294Z,7.00
2018-09-20T08:44:17.585Z,8.07
2018-09-20T08:54:20.869Z,7.40
2018-09-20T09:04:58.636Z,6.80
2018-09-20T09:15:01.913Z,6.90
2018-09-20T09:25:05.185Z,6.77
2018-09-20T09:35:08.430Z,6.70
2018-09-20T09:45:11.746Z,14.73
2018-09-20T09:55:14.986Z,9.67
2018-09-20T10:05:18.235Z,6.50
2018-09-20T10:15:21.503Z,5.73
2018-09-20T10:25:24.742Z,5.67
2018-09-20T10:35:28.012Z,5.20
2018-09-20T10:45:31.340Z,5.57
2018-09-20T10:55:34.585Z,4.90
2018-09-20T11:05:37.854Z,5.00
2018-09-20T11:15:41.111Z,5.70
2018-09-20T11:25:44.742Z,5.70
2018-09-20T11:35:47.949Z,5.07
2018-09-20T11:45:51.234Z,5.23
2018-09-20T11:55:54.480Z,4.80
2018-09-20T12:05:57.720Z,4.70
2018-09-20T12:16:01.077Z,4.40
2018-09-20T12:26:04.346Z,5.00
2018-09-20T12:36:07.767Z,5.07
2018-09-20T12:46:11.181Z,5.10
2018-09-20T12:56:14.400Z,4.83
2018-09-20T13:06:17.781Z,4.50
2018-09-20T13:16:21.071Z,5.20
2018-09-20T13:26:24.309Z,4.50
2018-09-20T13:36:27.637Z,4.37
2018-09-20T13:46:30.897Z,4.43
2018-09-20T13:56:34.204Z,4.50
2018-09-20T14:06:37.382Z,4.50
2018-09-20T14:16:40.694Z,4.40
2018-09-20T14:26:43.945Z,5.30
2018-09-20T14:36:47.906Z,4.87
2018-09-20T14:46:51.177Z,3.90
2018-09-20T14:56:54.427Z,4.80
2018-09-20T15:06:57.657Z,4.37
2018-09-20T15:17:00.935Z,4.43
2018-09-20T15:27:04.182Z,4.40
2018-09-20T15:37:07.471Z,4.73
2018-09-20T15:47:11.376Z,4.00
2018-09-20T15:57:14.630Z,4.07
2018-09-20T16:07:18.034Z,4.33
2018-09-20T16:17:21.397Z,3.80
2018-09-20T16:27:24.654Z,4.73
2018-09-20T16:37:40.581Z,4.60
2018-09-20T16:47:44.218Z,4.30
2018-09-20T16:57:47.610Z,4.47
2018-09-20T17:07:50.974Z,4.70
2018-09-20T17:17:54.381Z,4.40
2018-09-20T17:27:59.805Z,5.77
2018-09-20T17:38:03.858Z,4.60
2018-09-20T17:48:07.406Z,4.77
2018-09-20T17:58:11.146Z,5.30
2018-09-20T18:08:14.400Z,5.43
2018-09-20T18:18:17.857Z,4.60
2018-09-20T18:28:21.149Z,5.33
2018-09-20T18:38:26.569Z,4.93
2018-09-20T18:48:29.968Z,5.10
2018-09-20T18:58:37.333Z,5.07
2018-09-20T19:08:44.631Z,6.90
2018-09-20T19:18:48.100Z,6.20
2018-09-20T19:28:53.683Z,6.93
2018-09-20T19:38:57.116Z,5.73
2018-09-20T19:49:00.506Z,5.50
2018-09-20T19:59:06.287Z,5.90
2018-09-20T20:09:12.746Z,6.00
2018-09-20T20:19:18.109Z,6.00
2018-09-20T20:29:21.582Z,5.70
2018-09-20T20:39:24.871Z,5.63
2018-09-20T20:49:28.209Z,5.83
2018-09-20T20:59:31.755Z,5.20
2018-09-20T21:09:35.239Z,5.80
2018-09-20T21:19:38.533Z,5.80
2018-09-20T21:29:41.905Z,5.43
2018-09-20T21:39:45.214Z,5.10
2018-09-20T21:49:48.577Z,5.93
2018-09-20T21:59:52.101Z,5.60
2018-09-20T22:09:55.582Z,5.73
2018-09-20T22:19:58.922Z,5.90
2018-09-20T22:30:02.321Z,6.30
2018-09-20T22:40:05.756Z,5.87
2018-09-20T22:50:08.985Z,5.60
2018-09-20T23:00:12.248Z,5.97
2018-09-20T23:10:15.457Z,5.40
2018-09-20T23:20:18.765Z,5.87
2018-09-20T23:30:22.092Z,6.30
2018-09-20T23:40:25.301Z,6.50
2018-09-20T23:50:28.523Z,6.43
